sensor_id;sensor_type;location;lat;lon;timestamp;P1;durP1;ratioP1;P2;durP2;ratioP2
11675;SDS011;5894;42.768;23.404;2022-08-19T00:01:43;6.93;;;6.13;;
11675;SDS011;5894;42.768;23.404;2022-08-19T00:04:12;7.03;;;6.43;;
11675;SDS011;5894;42.768;23.404;2022-08-19T00:06:41;6.93;;;6.32;;
11675;SDS011;5894;42.768;23.404;2022-08-19T00:09:10;6.88;;;6.07;;
11675;SDS011;5894;42.768;23.404;2022-08-19T00:11:39;7.57;;;6.55;;
11675;SDS011;5894;42.768;23.404;2022-08-19T00:14:07;6.88;;;6.25;;
11675;SDS011;5894;42.768;23.404;2022-08-19T00:16:35;9.15;;;6.60;;
11675;SDS011;5894;42.768;23.404;2022-08-19T00:19:03;7.68;;;6.60;;
11675;SDS011;5894;42.768;23.404;2022-08-19T00:21:30;7.93;;;7.10;;
11675;SDS011;5894;42.768;23.404;2022-08-19T00:23:57;7.13;;;6.40;;
11675;SDS011;5894;42.768;23.404;2022-08-19T00:26:26;7.13;;;6.43;;
11675;SDS011;5894;42.768;23.404;2022-08-19T00:28:55;7.50;;;6.68;;
11675;SDS011;5894;42.768;23.404;2022-08-19T00:31:22;7.38;;;6.50;;
11675;SDS011;5894;42.768;23.404;2022-08-19T00:33:50;7.22;;;6.53;;
11675;SDS011;5894;42.768;23.404;2022-08-19T00:36:17;8.18;;;6.28;;
11675;SDS011;5894;42.768;23.404;2022-08-19T00:38:44;8.73;;;6.57;;
11675;SDS011;5894;42.768;23.404;2022-08-19T00:41:12;7.25;;;6.55;;
11675;SDS011;5894;42.768;23.404;2022-08-19T00:43:40;6.97;;;6.30;;
11675;SDS011;5894;42.768;23.404;2022-08-19T00:46:08;7.50;;;6.70;;
11675;SDS011;5894;42.768;23.404;2022-08-19T00:48:35;8.45;;;6.38;;
11675;SDS011;5894;42.768;23.404;2022-08-19T00:51:03;6.88;;;6.28;;
11675;SDS011;5894;42.768;23.404;2022-08-19T00:53:30;6.30;;;5.70;;
11675;SDS011;5894;42.768;23.404;2022-08-19T00:55:59;7.30;;;6.30;;
11675;SDS011;5894;42.768;23.404;2022-08-19T00:58:32;7.00;;;6.30;;
11675;SDS011;5894;42.768;23.404;2022-08-19T01:01:01;7.32;;;6.30;;
11675;SDS011;5894;42.768;23.404;2022-08-19T01:03:30;7.00;;;6.40;;
11675;SDS011;5894;42.768;23.404;2022-08-19T01:05:57;7.20;;;6.50;;
11675;SDS011;5894;42.768;23.404;2022-08-19T01:08:25;6.90;;;6.20;;
11675;SDS011;5894;42.768;23.404;2022-08-19T01:10:52;6.97;;;6.35;;
11675;SDS011;5894;42.768;23.404;2022-08-19T01:13:24;6.63;;;6.00;;
11675;SDS011;5894;42.768;23.404;2022-08-19T01:15:55;6.30;;;5.80;;
11675;SDS011;5894;42.768;23.404;2022-08-19T01:18:23;10.35;;;6.28;;
11675;SDS011;5894;42.768;23.404;2022-08-19T01:20:54;6.88;;;6.15;;
11675;SDS011;5894;42.768;23.404;2022-08-19T01:23:25;6.82;;;6.18;;
11675;SDS011;5894;42.768;23.404;2022-08-19T01:26:08;6.80;;;6.20;;
11675;SDS011;5894;42.768;23.404;2022-08-19T01:28:36;7.53;;;6.82;;
11675;SDS011;5894;42.768;23.404;2022-08-19T01:31:04;6.47;;;5.93;;
11675;SDS011;5894;42.768;23.404;2022-08-19T01:33:32;7.00;;;6.30;;
11675;SDS011;5894;42.768;23.404;2022-08-19T01:36:03;7.32;;;6.63;;
11675;SDS011;5894;42.768;23.404;2022-08-19T01:38:34;6.90;;;6.30;;
11675;SDS011;5894;42.768;23.404;2022-08-19T01:41:03;8.52;;;6.55;;
11675;SDS011;5894;42.768;23.404;2022-08-19T01:43:31;6.88;;;6.28;;
11675;SDS011;5894;42.768;23.404;2022-08-19T01:45:58;7.82;;;7.03;;
11675;SDS011;5894;42.768;23.404;2022-08-19T01:48:25;7.07;;;6.47;;
11675;SDS011;5894;42.768;23.404;2022-08-19T01:50:54;6.93;;;6.32;;
11675;SDS011;5894;42.768;23.404;2022-08-19T01:53:21;6.97;;;6.38;;
11675;SDS011;5894;42.768;23.404;2022-08-19T01:55:49;6.82;;;6.13;;
11675;SDS011;5894;42.768;23.404;2022-08-19T01:58:17;7.97;;;6.35;;
11675;SDS011;5894;42.768;23.404;2022-08-19T02:00:48;12.55;;;7.07;;
11675;SDS011;5894;42.768;23.404;2022-08-19T02:03:15;7.40;;;6.63;;
11675;SDS011;5894;42.768;23.404;2022-08-19T02:05:42;8.27;;;6.72;;
11675;SDS011;5894;42.768;23.404;2022-08-19T02:08:11;6.97;;;6.38;;
11675;SDS011;5894;42.768;23.404;2022-08-19T02:10:38;7.05;;;6.35;;
11675;SDS011;5894;42.768;23.404;2022-08-19T02:13:09;7.20;;;6.50;;
11675;SDS011;5894;42.768;23.404;2022-08-19T02:15:36;7.45;;;6.70;;
11675;SDS011;5894;42.768;23.404;2022-08-19T02:18:03;7.07;;;6.38;;
11675;SDS011;5894;42.768;23.404;2022-08-19T02:20:30;8.35;;;6.78;;
11675;SDS011;5894;42.768;23.404;2022-08-19T02:22:57;8.55;;;7.03;;
11675;SDS011;5894;42.768;23.404;2022-08-19T02:25:24;7.50;;;6.80;;
11675;SDS011;5894;42.768;23.404;2022-08-19T02:27:50;7.28;;;6.60;;
11675;SDS011;5894;42.768;23.404;2022-08-19T02:30:19;9.82;;;7.15;;
11675;SDS011;5894;42.768;23.404;2022-08-19T02:32:46;7.20;;;6.60;;
11675;SDS011;5894;42.768;23.404;2022-08-19T02:35:13;7.43;;;6.72;;
11675;SDS011;5894;42.768;23.404;2022-08-19T02:37:40;7.80;;;7.00;;
11675;SDS011;5894;42.768;23.404;2022-08-19T02:40:25;9.82;;;6.50;;
11675;SDS011;5894;42.768;23.404;2022-08-19T02:42:53;10.38;;;6.82;;
11675;SDS011;5894;42.768;23.404;2022-08-19T02:45:22;7.70;;;6.90;;
11675;SDS011;5894;42.768;23.404;2022-08-19T02:47:49;7.68;;;6.43;;
11675;SDS011;5894;42.768;23.404;2022-08-19T02:50:15;6.75;;;6.15;;
11675;SDS011;5894;42.768;23.404;2022-08-19T02:52:42;7.63;;;6.68;;
11675;SDS011;5894;42.768;23.404;2022-08-19T02:55:10;6.97;;;6.28;;
11675;SDS011;5894;42.768;23.404;2022-08-19T02:57:36;6.90;;;6.18;;
11675;SDS011;5894;42.768;23.404;2022-08-19T03:00:05;6.82;;;6.22;;
11675;SDS011;5894;42.768;23.404;2022-08-19T03:02:37;7.07;;;6.40;;
11675;SDS011;5894;42.768;23.404;2022-08-19T03:05:05;9.35;;;8.45;;
11675;SDS011;5894;42.768;23.404;2022-08-19T03:07:35;8.43;;;7.63;;
11675;SDS011;5894;42.768;23.404;2022-08-19T03:10:02;10.13;;;7.38;;
11675;SDS011;5894;42.768;23.404;2022-08-19T03:12:29;9.13;;;7.63;;
11675;SDS011;5894;42.768;23.404;2022-08-19T03:14:56;8.00;;;6.90;;
11675;SDS011;5894;42.768;23.404;2022-08-19T03:17:23;8.55;;;7.40;;
11675;SDS011;5894;42.768;23.404;2022-08-19T03:19:51;8.25;;;6.78;;
11675;SDS011;5894;42.768;23.404;2022-08-19T03:22:18;8.32;;;7.00;;
11675;SDS011;5894;42.768;23.404;2022-08-19T03:24:45;8.15;;;6.75;;
11675;SDS011;5894;42.768;23.404;2022-08-19T03:27:12;8.25;;;7.10;;
11675;SDS011;5894;42.768;23.404;2022-08-19T03:29:39;7.40;;;6.70;;
11675;SDS011;5894;42.768;23.404;2022-08-19T03:32:06;8.02;;;7.22;;
11675;SDS011;5894;42.768;23.404;2022-08-19T03:34:33;8.73;;;7.40;;
11675;SDS011;5894;42.768;23.404;2022-08-19T03:37:04;8.75;;;7.18;;
11675;SDS011;5894;42.768;23.404;2022-08-19T03:39:32;11.25;;;7.50;;
11675;SDS011;5894;42.768;23.404;2022-08-19T03:42:00;9.23;;;6.57;;
11675;SDS011;5894;42.768;23.404;2022-08-19T03:44:27;10.35;;;7.05;;
11675;SDS011;5894;42.768;23.404;2022-08-19T03:46:56;9.35;;;6.78;;
11675;SDS011;5894;42.768;23.404;2022-08-19T03:49:25;10.80;;;7.35;;
11675;SDS011;5894;42.768;23.404;2022-08-19T03:51:54;7.35;;;6.60;;
11675;SDS011;5894;42.768;23.404;2022-08-19T03:54:23;9.50;;;7.18;;
11675;SDS011;5894;42.768;23.404;2022-08-19T03:56:52;8.20;;;7.40;;
11675;SDS011;5894;42.768;23.404;2022-08-19T03:59:20;9.85;;;7.05;;
11675;SDS011;5894;42.768;23.404;2022-08-19T04:01:51;11.10;;;7.40;;
11675;SDS011;5894;42.768;23.404;2022-08-19T04:04:18;13.95;;;7.90;;
11675;SDS011;5894;42.768;23.404;2022-08-19T04:06:46;8.98;;;7.15;;
11675;SDS011;5894;42.768;23.404;2022-08-19T04:09:13;9.52;;;7.65;;
11675;SDS011;5894;42.768;23.404;2022-08-19T04:11:42;9.60;;;7.50;;
11675;SDS011;5894;42.768;23.404;2022-08-19T04:14:12;9.75;;;7.95;;
11675;SDS011;5894;42.768;23.404;2022-08-19T04:16:41;10.77;;;7.82;;
11675;SDS011;5894;42.768;23.404;2022-08-19T04:19:09;18.52;;;8.35;;
11675;SDS011;5894;42.768;23.404;2022-08-19T04:21:36;15.45;;;7.50;;
11675;SDS011;5894;42.768;23.404;2022-08-19T04:24:03;10.00;;;7.78;;
11675;SDS011;5894;42.768;23.404;2022-08-19T04:26:32;14.18;;;8.05;;
11675;SDS011;5894;42.768;23.404;2022-08-19T04:29:03;17.80;;;7.80;;
11675;SDS011;5894;42.768;23.404;2022-08-19T04:31:32;9.00;;;7.93;;
11675;SDS011;5894;42.768;23.404;2022-08-19T04:34:02;9.02;;;8.05;;
11675;SDS011;5894;42.768;23.404;2022-08-19T04:36:31;9.02;;;7.88;;
11675;SDS011;5894;42.768;23.404;2022-08-19T04:39:01;44.33;;;8.77;;
11675;SDS011;5894;42.768;23.404;2022-08-19T04:41:30;25.77;;;8.80;;
11675;SDS011;5894;42.768;23.404;2022-08-19T04:44:15;17.27;;;7.88;;
11675;SDS011;5894;42.768;23.404;2022-08-19T04:46:44;11.65;;;8.13;;
11675;SDS011;5894;42.768;23.404;2022-08-19T04:49:12;8.68;;;7.78;;
11675;SDS011;5894;42.768;23.404;2022-08-19T04:51:39;9.30;;;8.40;;
11675;SDS011;5894;42.768;23.404;2022-08-19T04:54:07;11.25;;;8.73;;
11675;SDS011;5894;42.768;23.404;2022-08-19T04:56:34;9.45;;;8.38;;
11675;SDS011;5894;42.768;23.404;2022-08-19T04:59:01;10.68;;;7.95;;
11675;SDS011;5894;42.768;23.404;2022-08-19T05:01:31;9.57;;;8.57;;
11675;SDS011;5894;42.768;23.404;2022-08-19T05:04:01;11.57;;;8.90;;
11675;SDS011;5894;42.768;23.404;2022-08-19T05:06:29;9.38;;;8.48;;
11675;SDS011;5894;42.768;23.404;2022-08-19T05:08:59;11.45;;;8.68;;
11675;SDS011;5894;42.768;23.404;2022-08-19T05:11:27;9.75;;;8.75;;
11675;SDS011;5894;42.768;23.404;2022-08-19T05:13:55;10.85;;;8.48;;
11675;SDS011;5894;42.768;23.404;2022-08-19T05:16:23;40.45;;;10.40;;
11675;SDS011;5894;42.768;23.404;2022-08-19T05:18:52;22.95;;;10.18;;
11675;SDS011;5894;42.768;23.404;2022-08-19T05:21:38;15.15;;;8.63;;
11675;SDS011;5894;42.768;23.404;2022-08-19T05:24:23;14.60;;;8.85;;
11675;SDS011;5894;42.768;23.404;2022-08-19T05:26:51;10.95;;;8.68;;
11675;SDS011;5894;42.768;23.404;2022-08-19T05:29:22;12.98;;;8.00;;
11675;SDS011;5894;42.768;23.404;2022-08-19T05:31:50;13.13;;;8.50;;
11675;SDS011;5894;42.768;23.404;2022-08-19T05:34:19;12.25;;;8.70;;
11675;SDS011;5894;42.768;23.404;2022-08-19T05:36:48;9.68;;;8.70;;
11675;SDS011;5894;42.768;23.404;2022-08-19T05:39:17;14.20;;;9.50;;
11675;SDS011;5894;42.768;23.404;2022-08-19T05:41:46;9.05;;;8.13;;
11675;SDS011;5894;42.768;23.404;2022-08-19T05:44:16;9.15;;;8.25;;
11675;SDS011;5894;42.768;23.404;2022-08-19T05:46:45;9.68;;;8.60;;
11675;SDS011;5894;42.768;23.404;2022-08-19T05:49:12;8.95;;;8.10;;
11675;SDS011;5894;42.768;23.404;2022-08-19T05:51:41;8.55;;;7.70;;
11675;SDS011;5894;42.768;23.404;2022-08-19T05:54:09;11.25;;;8.20;;
11675;SDS011;5894;42.768;23.404;2022-08-19T05:56:39;11.35;;;7.45;;
11675;SDS011;5894;42.768;23.404;2022-08-19T05:59:07;19.33;;;7.43;;
11675;SDS011;5894;42.768;23.404;2022-08-19T06:01:37;17.73;;;7.50;;
11675;SDS011;5894;42.768;23.404;2022-08-19T06:04:04;26.58;;;7.53;;
11675;SDS011;5894;42.768;23.404;2022-08-19T06:06:32;25.10;;;6.90;;
11675;SDS011;5894;42.768;23.404;2022-08-19T06:09:01;15.07;;;7.53;;
11675;SDS011;5894;42.768;23.404;2022-08-19T06:11:32;18.58;;;7.45;;
11675;SDS011;5894;42.768;23.404;2022-08-19T06:14:01;11.75;;;7.72;;
11675;SDS011;5894;42.768;23.404;2022-08-19T06:16:33;20.67;;;7.57;;
11675;SDS011;5894;42.768;23.404;2022-08-19T06:19:01;17.50;;;7.15;;
11675;SDS011;5894;42.768;23.404;2022-08-19T06:21:32;13.35;;;7.82;;
11675;SDS011;5894;42.768;23.404;2022-08-19T06:24:04;13.07;;;7.70;;
11675;SDS011;5894;42.768;23.404;2022-08-19T06:26:33;12.90;;;7.38;;
11675;SDS011;5894;42.768;23.404;2022-08-19T06:29:01;15.07;;;7.35;;
11675;SDS011;5894;42.768;23.404;2022-08-19T06:31:29;11.95;;;7.50;;
11675;SDS011;5894;42.768;23.404;2022-08-19T06:33:58;11.52;;;7.45;;
11675;SDS011;5894;42.768;23.404;2022-08-19T06:36:27;11.52;;;7.40;;
11675;SDS011;5894;42.768;23.404;2022-08-19T06:38:59;9.13;;;7.07;;
11675;SDS011;5894;42.768;23.404;2022-08-19T06:41:29;9.07;;;7.00;;
11675;SDS011;5894;42.768;23.404;2022-08-19T06:43:57;10.35;;;6.85;;
11675;SDS011;5894;42.768;23.404;2022-08-19T06:46:24;8.30;;;6.95;;
11675;SDS011;5894;42.768;23.404;2022-08-19T06:48:53;17.10;;;7.45;;
11675;SDS011;5894;42.768;23.404;2022-08-19T06:51:20;8.40;;;7.55;;
11675;SDS011;5894;42.768;23.404;2022-08-19T06:53:49;7.30;;;6.32;;
11675;SDS011;5894;42.768;23.404;2022-08-19T06:56:18;7.90;;;6.95;;
11675;SDS011;5894;42.768;23.404;2022-08-19T06:58:48;8.32;;;7.03;;
11675;SDS011;5894;42.768;23.404;2022-08-19T07:01:16;12.02;;;7.70;;
11675;SDS011;5894;42.768;23.404;2022-08-19T07:03:43;11.68;;;7.18;;
11675;SDS011;5894;42.768;23.404;2022-08-19T07:06:12;8.85;;;6.22;;
11675;SDS011;5894;42.768;23.404;2022-08-19T07:08:43;10.13;;;6.40;;
11675;SDS011;5894;42.768;23.404;2022-08-19T07:11:12;8.68;;;6.13;;
11675;SDS011;5894;42.768;23.404;2022-08-19T07:13:43;7.38;;;6.20;;
11675;SDS011;5894;42.768;23.404;2022-08-19T07:16:12;8.32;;;6.22;;
11675;SDS011;5894;42.768;23.404;2022-08-19T07:18:40;9.65;;;6.00;;
11675;SDS011;5894;42.768;23.404;2022-08-19T07:21:11;11.50;;;6.00;;
11675;SDS011;5894;42.768;23.404;2022-08-19T07:23:39;13.63;;;6.20;;
11675;SDS011;5894;42.768;23.404;2022-08-19T07:26:06;9.45;;;5.93;;
11675;SDS011;5894;42.768;23.404;2022-08-19T07:28:34;10.05;;;5.70;;
11675;SDS011;5894;42.768;23.404;2022-08-19T07:31:04;13.00;;;5.57;;
11675;SDS011;5894;42.768;23.404;2022-08-19T07:33:33;8.20;;;5.10;;
11675;SDS011;5894;42.768;23.404;2022-08-19T07:36:02;6.75;;;4.80;;
11675;SDS011;5894;42.768;23.404;2022-08-19T07:38:30;9.15;;;5.00;;
11675;SDS011;5894;42.768;23.404;2022-08-19T07:40:57;7.95;;;4.80;;
11675;SDS011;5894;42.768;23.404;2022-08-19T07:43:24;6.75;;;4.80;;
11675;SDS011;5894;42.768;23.404;2022-08-19T07:45:54;6.00;;;4.72;;
11675;SDS011;5894;42.768;23.404;2022-08-19T07:48:22;4.90;;;4.40;;
11675;SDS011;5894;42.768;23.404;2022-08-19T07:50:53;5.15;;;4.47;;
11675;SDS011;5894;42.768;23.404;2022-08-19T07:53:20;5.72;;;4.40;;
11675;SDS011;5894;42.768;23.404;2022-08-19T07:55:47;5.72;;;4.75;;
11675;SDS011;5894;42.768;23.404;2022-08-19T07:58:16;6.35;;;4.85;;
11675;SDS011;5894;42.768;23.404;2022-08-19T08:00:45;5.47;;;4.97;;
11675;SDS011;5894;42.768;23.404;2022-08-19T08:03:13;14.13;;;7.60;;
11675;SDS011;5894;42.768;23.404;2022-08-19T08:05:41;7.10;;;5.45;;
11675;SDS011;5894;42.768;23.404;2022-08-19T08:08:27;6.05;;;4.55;;
11675;SDS011;5894;42.768;23.404;2022-08-19T08:11:13;8.32;;;5.25;;
11675;SDS011;5894;42.768;23.404;2022-08-19T08:13:41;6.15;;;5.15;;
11675;SDS011;5894;42.768;23.404;2022-08-19T08:16:09;5.35;;;4.85;;
11675;SDS011;5894;42.768;23.404;2022-08-19T08:18:36;6.07;;;5.00;;
11675;SDS011;5894;42.768;23.404;2022-08-19T08:21:10;6.10;;;5.00;;
11675;SDS011;5894;42.768;23.404;2022-08-19T08:23:38;5.43;;;4.93;;
11675;SDS011;5894;42.768;23.404;2022-08-19T08:26:05;7.78;;;5.22;;
11675;SDS011;5894;42.768;23.404;2022-08-19T08:28:32;6.28;;;5.10;;
11675;SDS011;5894;42.768;23.404;2022-08-19T08:30:59;5.38;;;4.70;;
11675;SDS011;5894;42.768;23.404;2022-08-19T08:33:26;5.20;;;4.70;;
11675;SDS011;5894;42.768;23.404;2022-08-19T08:35:55;6.10;;;4.95;;
11675;SDS011;5894;42.768;23.404;2022-08-19T08:38:22;5.78;;;5.20;;
11675;SDS011;5894;42.768;23.404;2022-08-19T08:40:53;5.50;;;5.00;;
11675;SDS011;5894;42.768;23.404;2022-08-19T08:43:33;6.60;;;4.75;;
11675;SDS011;5894;42.768;23.404;2022-08-19T08:46:07;5.47;;;4.40;;
11675;SDS011;5894;42.768;23.404;2022-08-19T08:48:40;11.00;;;4.65;;
11675;SDS011;5894;42.768;23.404;2022-08-19T08:51:17;6.57;;;4.32;;
11675;SDS011;5894;42.768;23.404;2022-08-19T08:53:49;6.38;;;5.22;;
11675;SDS011;5894;42.768;23.404;2022-08-19T08:56:19;5.78;;;4.85;;
11675;SDS011;5894;42.768;23.404;2022-08-19T08:58:49;9.18;;;7.07;;
11675;SDS011;5894;42.768;23.404;2022-08-19T09:01:21;8.02;;;5.10;;
11675;SDS011;5894;42.768;23.404;2022-08-19T09:06:27;6.40;;;4.50;;
11675;SDS011;5894;42.768;23.404;2022-08-19T09:09:00;13.18;;;6.90;;
11675;SDS011;5894;42.768;23.404;2022-08-19T09:11:39;7.90;;;5.00;;
11675;SDS011;5894;42.768;23.404;2022-08-19T09:14:15;6.85;;;4.25;;
11675;SDS011;5894;42.768;23.404;2022-08-19T09:16:54;5.50;;;4.30;;
11675;SDS011;5894;42.768;23.404;2022-08-19T09:19:20;6.25;;;3.90;;
11675;SDS011;5894;42.768;23.404;2022-08-19T09:21:47;6.72;;;4.25;;
11675;SDS011;5894;42.768;23.404;2022-08-19T09:24:15;4.43;;;3.78;;
11675;SDS011;5894;42.768;23.404;2022-08-19T09:26:43;5.38;;;3.90;;
11675;SDS011;5894;42.768;23.404;2022-08-19T09:29:11;5.82;;;4.20;;
11675;SDS011;5894;42.768;23.404;2022-08-19T09:31:37;6.38;;;4.10;;
11675;SDS011;5894;42.768;23.404;2022-08-19T09:34:04;5.80;;;4.15;;
11675;SDS011;5894;42.768;23.404;2022-08-19T09:36:31;6.55;;;4.32;;
11675;SDS011;5894;42.768;23.404;2022-08-19T09:39:01;7.28;;;3.90;;
11675;SDS011;5894;42.768;23.404;2022-08-19T09:41:30;5.10;;;3.80;;
11675;SDS011;5894;42.768;23.404;2022-08-19T09:43:58;6.85;;;4.22;;
11675;SDS011;5894;42.768;23.404;2022-08-19T09:46:26;4.25;;;3.85;;
11675;SDS011;5894;42.768;23.404;2022-08-19T09:48:56;5.72;;;4.22;;
11675;SDS011;5894;42.768;23.404;2022-08-19T09:51:25;5.95;;;4.60;;
11675;SDS011;5894;42.768;23.404;2022-08-19T09:53:53;7.80;;;4.50;;
11675;SDS011;5894;42.768;23.404;2022-08-19T09:56:22;5.05;;;4.20;;
11675;SDS011;5894;42.768;23.404;2022-08-19T09:58:49;16.35;;;10.82;;
11675;SDS011;5894;42.768;23.404;2022-08-19T10:01:19;8.20;;;4.90;;
11675;SDS011;5894;42.768;23.404;2022-08-19T10:06:18;6.97;;;5.00;;
11675;SDS011;5894;42.768;23.404;2022-08-19T10:08:46;7.13;;;3.92;;
11675;SDS011;5894;42.768;23.404;2022-08-19T10:11:13;8.45;;;4.10;;
11675;SDS011;5894;42.768;23.404;2022-08-19T10:13:42;4.45;;;3.58;;
11675;SDS011;5894;42.768;23.404;2022-08-19T10:16:11;4.38;;;4.03;;
11675;SDS011;5894;42.768;23.404;2022-08-19T10:18:40;5.60;;;4.10;;
11675;SDS011;5894;42.768;23.404;2022-08-19T10:21:10;5.15;;;4.13;;
11675;SDS011;5894;42.768;23.404;2022-08-19T10:23:41;4.85;;;3.70;;
11675;SDS011;5894;42.768;23.404;2022-08-19T10:26:11;4.72;;;3.90;;
11675;SDS011;5894;42.768;23.404;2022-08-19T10:28:40;8.43;;;5.55;;
11675;SDS011;5894;42.768;23.404;2022-08-19T10:31:07;11.40;;;6.55;;
11675;SDS011;5894;42.768;23.404;2022-08-19T10:33:37;8.38;;;4.78;;
11675;SDS011;5894;42.768;23.404;2022-08-19T10:36:07;4.95;;;4.10;;
11675;SDS011;5894;42.768;23.404;2022-08-19T10:38:37;6.80;;;4.07;;
11675;SDS011;5894;42.768;23.404;2022-08-19T10:41:07;5.22;;;4.00;;
11675;SDS011;5894;42.768;23.404;2022-08-19T10:43:36;5.75;;;4.07;;
11675;SDS011;5894;42.768;23.404;2022-08-19T10:46:04;4.00;;;3.60;;
11675;SDS011;5894;42.768;23.404;2022-08-19T10:48:32;4.38;;;3.90;;
11675;SDS011;5894;42.768;23.404;2022-08-19T10:50:59;4.75;;;3.80;;
11675;SDS011;5894;42.768;23.404;2022-08-19T10:53:45;4.15;;;3.38;;
11675;SDS011;5894;42.768;23.404;2022-08-19T10:56:12;5.95;;;3.80;;
11675;SDS011;5894;42.768;23.404;2022-08-19T10:58:56;5.75;;;4.07;;
11675;SDS011;5894;42.768;23.404;2022-08-19T11:01:24;4.15;;;3.67;;
11675;SDS011;5894;42.768;23.404;2022-08-19T11:03:51;4.57;;;4.10;;
11675;SDS011;5894;42.768;23.404;2022-08-19T11:06:17;6.10;;;3.67;;
11675;SDS011;5894;42.768;23.404;2022-08-19T11:08:46;7.80;;;3.95;;
11675;SDS011;5894;42.768;23.404;2022-08-19T11:11:13;3.65;;;3.33;;
11675;SDS011;5894;42.768;23.404;2022-08-19T11:13:41;4.15;;;3.85;;
11675;SDS011;5894;42.768;23.404;2022-08-19T11:16:11;9.82;;;7.47;;
11675;SDS011;5894;42.768;23.404;2022-08-19T11:18:41;8.25;;;6.78;;
11675;SDS011;5894;42.768;23.404;2022-08-19T11:21:10;6.35;;;5.20;;
11675;SDS011;5894;42.768;23.404;2022-08-19T11:23:38;8.52;;;4.13;;
11675;SDS011;5894;42.768;23.404;2022-08-19T11:26:07;4.95;;;4.20;;
11675;SDS011;5894;42.768;23.404;2022-08-19T11:28:34;4.80;;;4.28;;
11675;SDS011;5894;42.768;23.404;2022-08-19T11:31:00;4.38;;;3.78;;
11675;SDS011;5894;42.768;23.404;2022-08-19T11:33:28;4.07;;;3.67;;
11675;SDS011;5894;42.768;23.404;2022-08-19T11:35:56;6.43;;;3.90;;
11675;SDS011;5894;42.768;23.404;2022-08-19T11:38:25;5.05;;;4.05;;
11675;SDS011;5894;42.768;23.404;2022-08-19T11:40:56;4.60;;;4.13;;
11675;SDS011;5894;42.768;23.404;2022-08-19T11:43:25;6.20;;;4.05;;
11675;SDS011;5894;42.768;23.404;2022-08-19T11:45:53;4.78;;;4.03;;
11675;SDS011;5894;42.768;23.404;2022-08-19T11:48:21;5.68;;;4.05;;
11675;SDS011;5894;42.768;23.404;2022-08-19T11:50:48;5.07;;;4.20;;
11675;SDS011;5894;42.768;23.404;2022-08-19T11:53:15;7.63;;;4.55;;
11675;SDS011;5894;42.768;23.404;2022-08-19T11:55:43;6.95;;;4.30;;
11675;SDS011;5894;42.768;23.404;2022-08-19T11:58:10;5.60;;;4.13;;
11675;SDS011;5894;42.768;23.404;2022-08-19T12:00:39;5.90;;;4.30;;
11675;SDS011;5894;42.768;23.404;2022-08-19T12:03:06;4.72;;;4.10;;
11675;SDS011;5894;42.768;23.404;2022-08-19T12:05:35;7.53;;;4.53;;
11675;SDS011;5894;42.768;23.404;2022-08-19T12:08:03;5.72;;;3.90;;
11675;SDS011;5894;42.768;23.404;2022-08-19T12:10:30;10.45;;;4.18;;
11675;SDS011;5894;42.768;23.404;2022-08-19T12:12:57;4.45;;;3.83;;
11675;SDS011;5894;42.768;23.404;2022-08-19T12:15:24;8.52;;;4.03;;
11675;SDS011;5894;42.768;23.404;2022-08-19T12:17:54;4.97;;;4.43;;
11675;SDS011;5894;42.768;23.404;2022-08-19T12:20:22;5.97;;;4.50;;
11675;SDS011;5894;42.768;23.404;2022-08-19T12:22:50;6.13;;;4.30;;
11675;SDS011;5894;42.768;23.404;2022-08-19T12:25:20;9.75;;;4.63;;
11675;SDS011;5894;42.768;23.404;2022-08-19T12:27:47;6.40;;;4.30;;
11675;SDS011;5894;42.768;23.404;2022-08-19T12:30:14;9.27;;;4.60;;
11675;SDS011;5894;42.768;23.404;2022-08-19T12:32:41;10.52;;;4.32;;
11675;SDS011;5894;42.768;23.404;2022-08-19T12:35:09;8.43;;;4.45;;
11675;SDS011;5894;42.768;23.404;2022-08-19T12:37:37;7.28;;;4.28;;
11675;SDS011;5894;42.768;23.404;2022-08-19T12:40:09;6.85;;;4.35;;
11675;SDS011;5894;42.768;23.404;2022-08-19T12:42:37;5.15;;;4.45;;
11675;SDS011;5894;42.768;23.404;2022-08-19T12:45:08;7.97;;;4.32;;
11675;SDS011;5894;42.768;23.404;2022-08-19T12:47:36;7.28;;;4.47;;
11675;SDS011;5894;42.768;23.404;2022-08-19T12:50:03;6.47;;;4.30;;
11675;SDS011;5894;42.768;23.404;2022-08-19T12:52:35;6.60;;;4.15;;
11675;SDS011;5894;42.768;23.404;2022-08-19T12:55:04;6.80;;;4.22;;
11675;SDS011;5894;42.768;23.404;2022-08-19T12:57:32;5.78;;;4.57;;
11675;SDS011;5894;42.768;23.404;2022-08-19T13:00:04;5.40;;;4.07;;
11675;SDS011;5894;42.768;23.404;2022-08-19T13:02:34;5.40;;;3.95;;
11675;SDS011;5894;42.768;23.404;2022-08-19T13:05:01;5.78;;;4.18;;
11675;SDS011;5894;42.768;23.404;2022-08-19T13:07:31;7.57;;;5.10;;
11675;SDS011;5894;42.768;23.404;2022-08-19T13:09:59;5.65;;;4.30;;
11675;SDS011;5894;42.768;23.404;2022-08-19T13:12:27;5.65;;;4.40;;
11675;SDS011;5894;42.768;23.404;2022-08-19T13:14:54;4.80;;;4.05;;
11675;SDS011;5894;42.768;23.404;2022-08-19T13:17:22;5.28;;;4.40;;
11675;SDS011;5894;42.768;23.404;2022-08-19T13:19:49;5.82;;;4.70;;
11675;SDS011;5894;42.768;23.404;2022-08-19T13:22:16;6.18;;;4.30;;
11675;SDS011;5894;42.768;23.404;2022-08-19T13:24:43;4.75;;;4.03;;
11675;SDS011;5894;42.768;23.404;2022-08-19T13:27:12;7.18;;;5.00;;
11675;SDS011;5894;42.768;23.404;2022-08-19T13:29:39;6.00;;;4.43;;
11675;SDS011;5894;42.768;23.404;2022-08-19T13:32:24;4.95;;;4.40;;
11675;SDS011;5894;42.768;23.404;2022-08-19T13:35:09;7.05;;;5.55;;
11675;SDS011;5894;42.768;23.404;2022-08-19T13:37:35;7.13;;;4.95;;
11675;SDS011;5894;42.768;23.404;2022-08-19T13:40:10;7.63;;;5.15;;
11675;SDS011;5894;42.768;23.404;2022-08-19T13:42:43;4.90;;;4.40;;
11675;SDS011;5894;42.768;23.404;2022-08-19T13:45:12;4.53;;;4.13;;
11675;SDS011;5894;42.768;23.404;2022-08-19T13:47:41;7.53;;;4.32;;
11675;SDS011;5894;42.768;23.404;2022-08-19T13:50:10;5.05;;;4.30;;
11675;SDS011;5894;42.768;23.404;2022-08-19T13:52:37;6.90;;;4.63;;
11675;SDS011;5894;42.768;23.404;2022-08-19T13:55:04;8.15;;;4.13;;
11675;SDS011;5894;42.768;23.404;2022-08-19T13:57:32;5.40;;;4.05;;
11675;SDS011;5894;42.768;23.404;2022-08-19T14:00:00;5.72;;;4.07;;
11675;SDS011;5894;42.768;23.404;2022-08-19T14:02:30;9.18;;;4.40;;
11675;SDS011;5894;42.768;23.404;2022-08-19T14:04:57;4.93;;;4.40;;
11675;SDS011;5894;42.768;23.404;2022-08-19T14:07:24;8.32;;;4.55;;
11675;SDS011;5894;42.768;23.404;2022-08-19T14:09:51;8.27;;;4.43;;
11675;SDS011;5894;42.768;23.404;2022-08-19T14:12:18;5.18;;;3.97;;
11675;SDS011;5894;42.768;23.404;2022-08-19T14:14:46;5.55;;;4.15;;
11675;SDS011;5894;42.768;23.404;2022-08-19T14:17:15;4.72;;;4.32;;
11675;SDS011;5894;42.768;23.404;2022-08-19T14:19:42;6.28;;;4.25;;
11675;SDS011;5894;42.768;23.404;2022-08-19T14:22:08;7.10;;;4.30;;
11675;SDS011;5894;42.768;23.404;2022-08-19T14:24:36;5.80;;;3.90;;
11675;SDS011;5894;42.768;23.404;2022-08-19T14:27:04;6.57;;;4.55;;
11675;SDS011;5894;42.768;23.404;2022-08-19T14:29:31;5.57;;;4.07;;
11675;SDS011;5894;42.768;23.404;2022-08-19T14:31:57;5.07;;;4.00;;
11675;SDS011;5894;42.768;23.404;2022-08-19T14:34:26;5.65;;;3.95;;
11675;SDS011;5894;42.768;23.404;2022-08-19T14:36:53;8.50;;;4.53;;
11675;SDS011;5894;42.768;23.404;2022-08-19T14:39:20;6.82;;;4.47;;
11675;SDS011;5894;42.768;23.404;2022-08-19T14:41:46;4.82;;;4.30;;
11675;SDS011;5894;42.768;23.404;2022-08-19T14:44:13;4.82;;;4.43;;
11675;SDS011;5894;42.768;23.404;2022-08-19T14:46:40;8.00;;;4.50;;
11675;SDS011;5894;42.768;23.404;2022-08-19T14:49:07;6.28;;;4.57;;
11675;SDS011;5894;42.768;23.404;2022-08-19T14:51:35;4.90;;;4.32;;
11675;SDS011;5894;42.768;23.404;2022-08-19T14:54:02;5.85;;;4.30;;
11675;SDS011;5894;42.768;23.404;2022-08-19T14:56:29;5.75;;;4.20;;
11675;SDS011;5894;42.768;23.404;2022-08-19T14:58:56;8.25;;;4.78;;
11675;SDS011;5894;42.768;23.404;2022-08-19T15:01:26;7.20;;;4.72;;